createdAt,value
2022-10-01T00:00:02.849Z,11.15
2022-10-01T00:01:02.607Z,11.17
2022-10-01T00:02:03.042Z,11.19
2022-10-01T00:03:02.602Z,11.19
2022-10-01T00:04:03.077Z,11.21
2022-10-01T00:05:02.640Z,11.23
2022-10-01T00:06:03.087Z,11.23
2022-10-01T00:07:01.935Z,11.23
2022-10-01T00:08:02.487Z,11.22
2022-10-01T00:09:02.178Z,11.23
2022-10-01T00:10:02.009Z,11.25
2022-10-01T00:11:02.434Z,11.28
2022-10-01T00:12:02.237Z,11.31
2022-10-01T00:13:02.337Z,11.33
2022-10-01T00:14:02.456Z,11.35
2022-10-01T00:15:06.002Z,11.35
2022-10-01T00:16:02.706Z,11.37
2022-10-01T00:17:03.097Z,11.36
2022-10-01T00:18:02.515Z,11.37
2022-10-01T00:19:03.045Z,11.37
2022-10-01T00:20:03.633Z,11.37
2022-10-01T00:21:03.109Z,11.40
2022-10-01T00:22:01.715Z,11.42
2022-10-01T00:23:02.082Z,11.43
2022-10-01T00:24:01.935Z,11.44
2022-10-01T00:25:02.022Z,11.46
2022-10-01T00:26:01.972Z,11.48
2022-10-01T00:27:01.720Z,11.50
2022-10-01T00:28:02.317Z,11.52
2022-10-01T00:29:01.915Z,11.54
2022-10-01T00:30:02.171Z,11.55
2022-10-01T00:31:01.956Z,11.57
2022-10-01T00:32:02.475Z,11.59
2022-10-01T00:33:02.910Z,11.59
2022-10-01T00:34:02.659Z,11.60
2022-10-01T00:35:02.624Z,11.61
2022-10-01T00:36:02.649Z,11.63
2022-10-01T00:37:02.145Z,11.64
2022-10-01T00:38:02.575Z,11.63
2022-10-01T00:39:02.247Z,11.62
2022-10-01T00:40:02.579Z,11.64
2022-10-01T00:41:02.190Z,11.65
2022-10-01T00:42:02.533Z,11.67
2022-10-01T00:43:02.660Z,11.67
2022-10-01T00:44:03.001Z,11.68
2022-10-01T00:45:02.940Z,11.70
2022-10-01T00:46:02.693Z,11.68
2022-10-01T00:47:02.169Z,11.67
2022-10-01T00:48:02.206Z,11.68
2022-10-01T00:49:02.335Z,11.67
2022-10-01T00:50:02.418Z,11.67
2022-10-01T00:51:02.134Z,11.66
2022-10-01T00:52:02.583Z,11.67
2022-10-01T00:53:02.828Z,11.66
2022-10-01T00:54:02.212Z,11.64
2022-10-01T00:55:02.790Z,11.65
2022-10-01T00:56:02.316Z,11.66
2022-10-01T00:57:01.838Z,11.66
2022-10-01T00:58:01.853Z,11.67
2022-10-01T00:59:01.985Z,11.66
2022-10-01T01:00:01.722Z,11.68
2022-10-01T01:01:02.289Z,11.67
2022-10-01T01:02:02.433Z,11.67
2022-10-01T01:03:02.867Z,11.67
2022-10-01T01:04:02.346Z,11.68
2022-10-01T01:05:02.762Z,11.69
2022-10-01T01:06:02.514Z,11.67
2022-10-01T01:07:02.189Z,11.70
2022-10-01T01:08:02.236Z,11.67
2022-10-01T01:09:01.945Z,11.64
2022-10-01T01:10:02.321Z,11.64
2022-10-01T01:11:02.069Z,11.66
2022-10-01T01:12:02.757Z,11.68
2022-10-01T01:13:02.530Z,11.70
2022-10-01T01:14:02.994Z,11.73
2022-10-01T01:15:02.532Z,11.75
2022-10-01T01:16:02.609Z,11.75
2022-10-01T01:17:01.830Z,11.76
2022-10-01T01:18:01.960Z,11.79
2022-10-01T01:19:01.974Z,11.82
2022-10-01T01:20:02.349Z,11.85
2022-10-01T01:21:02.082Z,11.88
2022-10-01T01:22:02.354Z,11.88
2022-10-01T01:23:02.278Z,11.93
2022-10-01T01:24:02.710Z,11.96
2022-10-01T01:25:02.399Z,11.96
2022-10-01T01:26:02.761Z,11.95
2022-10-01T01:27:02.271Z,11.97
2022-10-01T01:28:02.024Z,11.98
2022-10-01T01:29:02.381Z,12.02
2022-10-01T01:30:02.065Z,12.04
2022-10-01T01:31:02.337Z,12.09
2022-10-01T01:32:02.736Z,12.11
2022-10-01T01:33:02.398Z,12.14
2022-10-01T01:34:02.827Z,12.16
2022-10-01T01:35:02.602Z,12.19
2022-10-01T01:36:02.950Z,12.23
2022-10-01T01:37:02.343Z,12.26
2022-10-01T01:38:02.043Z,12.25
2022-10-01T01:39:02.487Z,12.25
2022-10-01T01:40:02.582Z,12.26
2022-10-01T01:41:02.323Z,12.28
2022-10-01T01:42:02.653Z,12.28
2022-10-01T01:43:02.314Z,12.28
2022-10-01T01:44:02.623Z,12.28
2022-10-01T01:45:02.912Z,12.27
2022-10-01T01:46:02.972Z,12.26
2022-10-01T01:47:02.187Z,12.28
2022-10-01T01:48:01.762Z,12.26
2022-10-01T01:49:02.239Z,12.28
2022-10-01T01:50:01.904Z,12.28
2022-10-01T01:51:02.215Z,12.28
2022-10-01T01:52:02.606Z,12.29
2022-10-01T01:53:02.284Z,12.30
2022-10-01T01:54:02.659Z,12.31
2022-10-01T01:55:02.424Z,12.29
2022-10-01T01:56:02.527Z,12.31
2022-10-01T01:57:03.102Z,12.30
2022-10-01T01:58:03.102Z,12.27
2022-10-01T01:59:02.581Z,12.26
2022-10-01T02:00:02.513Z,12.25
2022-10-01T02:01:03.067Z,12.25
2022-10-01T02:02:03.270Z,12.25
2022-10-01T02:03:03.010Z,12.23
2022-10-01T02:04:02.784Z,12.23
2022-10-01T02:05:03.050Z,12.24
2022-10-01T02:06:02.839Z,12.23
2022-10-01T02:07:03.413Z,12.22
2022-10-01T02:08:03.257Z,12.21
2022-10-01T02:09:02.914Z,12.20
2022-10-01T02:10:03.187Z,12.22
2022-10-01T02:11:02.914Z,12.23
2022-10-01T02:12:03.464Z,12.23
2022-10-01T02:13:02.955Z,12.19
2022-10-01T02:14:03.293Z,12.17
2022-10-01T02:15:03.051Z,12.16
2022-10-01T02:16:03.121Z,12.14
2022-10-01T02:17:03.445Z,12.11
2022-10-01T02:18:03.211Z,12.08
2022-10-01T02:19:03.576Z,12.10
2022-10-01T02:20:03.266Z,12.08
2022-10-01T02:21:03.644Z,12.06
2022-10-01T02:22:03.102Z,12.02
2022-10-01T02:23:03.075Z,12.01
2022-10-01T02:24:02.860Z,12.00
2022-10-01T02:25:03.284Z,11.97
2022-10-01T02:26:02.737Z,11.94
2022-10-01T02:27:03.209Z,11.93
2022-10-01T02:28:03.369Z,11.92
2022-10-01T02:29:02.963Z,11.85
2022-10-01T02:30:03.284Z,11.86
2022-10-01T02:31:02.757Z,11.84
2022-10-01T02:32:03.314Z,11.82
2022-10-01T02:33:02.768Z,11.82
2022-10-01T02:34:03.216Z,11.80
2022-10-01T02:35:02.990Z,11.81
2022-10-01T02:36:02.852Z,11.80
2022-10-01T02:37:02.945Z,11.79
2022-10-01T02:38:02.833Z,11.73
2022-10-01T02:39:03.321Z,11.72
2022-10-01T02:40:03.061Z,11.73
2022-10-01T02:41:02.803Z,11.73
2022-10-01T02:42:03.494Z,11.72
2022-10-01T02:43:03.268Z,11.72
2022-10-01T02:44:03.576Z,11.73
2022-10-01T02:45:03.118Z,11.70
2022-10-01T02:46:03.600Z,11.69
2022-10-01T02:47:02.986Z,11.64
2022-10-01T02:48:02.488Z,11.61
2022-10-01T02:49:02.901Z,11.59
2022-10-01T02:50:02.849Z,11.60
2022-10-01T02:51:02.332Z,11.59
2022-10-01T02:52:03.499Z,11.56
2022-10-01T02:53:02.989Z,11.56
2022-10-01T02:54:03.286Z,11.56
2022-10-01T02:55:03.218Z,11.51
2022-10-01T02:56:03.077Z,11.50
2022-10-01T02:57:03.101Z,11.47
2022-10-01T02:58:02.631Z,11.48
2022-10-01T02:59:02.852Z,11.46
2022-10-01T03:00:02.589Z,11.47
2022-10-01T03:01:03.056Z,11.47
2022-10-01T03:02:03.442Z,11.48
2022-10-01T03:03:03.082Z,11.48
2022-10-01T03:04:03.515Z,11.47
2022-10-01T03:05:02.986Z,11.48
2022-10-01T03:06:03.377Z,11.48
2022-10-01T03:07:03.491Z,11.49
2022-10-01T03:08:03.280Z,11.51
2022-10-01T03:09:03.750Z,11.52
2022-10-01T03:10:03.385Z,11.55
2022-10-01T03:11:03.754Z,11.56
2022-10-01T03:12:03.449Z,11.47
2022-10-01T03:13:03.459Z,11.46
2022-10-01T03:14:02.978Z,11.41
2022-10-01T03:15:03.186Z,11.42
2022-10-01T03:16:03.230Z,11.42
2022-10-01T03:17:03.578Z,11.40
2022-10-01T03:18:03.089Z,11.42
2022-10-01T03:19:03.352Z,11.41
2022-10-01T03:20:03.101Z,11.44
2022-10-01T03:21:03.555Z,11.43
2022-10-01T03:22:03.264Z,11.44
2022-10-01T03:23:03.708Z,11.42
2022-10-01T03:24:03.468Z,11.46
2022-10-01T03:25:03.251Z,11.46
2022-10-01T03:26:03.709Z,11.47
2022-10-01T03:27:02.461Z,11.49
2022-10-01T03:28:02.920Z,11.49
2022-10-01T03:29:02.444Z,11.50
2022-10-01T03:30:02.876Z,11.52
2022-10-01T03:31:02.823Z,11.50
2022-10-01T03:32:02.659Z,11.52
2022-10-01T03:33:03.137Z,11.48
2022-10-01T03:34:02.893Z,11.52
2022-10-01T03:35:02.668Z,11.54
2022-10-01T03:36:02.941Z,11.59
2022-10-01T03:37:02.989Z,11.63
2022-10-01T03:38:03.167Z,11.66
2022-10-01T03:39:02.971Z,11.67
2022-10-01T03:40:02.641Z,11.66
2022-10-01T03:41:03.012Z,11.67
2022-10-01T03:42:02.787Z,11.70
2022-10-01T03:43:02.826Z,11.74
2022-10-01T03:44:03.329Z,11.75
2022-10-01T03:45:02.829Z,11.78
2022-10-01T03:46:03.286Z,11.80
2022-10-01T03:47:03.314Z,11.82
2022-10-01T03:48:02.943Z,11.82
2022-10-01T03:49:03.362Z,11.84
2022-10-01T03:50:02.932Z,11.87
2022-10-01T03:51:03.414Z,11.87
2022-10-01T03:52:02.951Z,11.89
2022-10-01T03:53:03.423Z,11.90
2022-10-01T03:54:03.184Z,11.92
2022-10-01T03:55:02.877Z,11.94
2022-10-01T03:56:03.236Z,11.98
2022-10-01T03:57:03.027Z,12.01
2022-10-01T03:58:02.916Z,12.02
2022-10-01T03:59:03.331Z,12.03
2022-10-01T04:00:02.960Z,12.03
2022-10-01T04:01:02.927Z,12.04
2022-10-01T04:02:02.580Z,12.02
2022-10-01T04:03:02.449Z,12.04
2022-10-01T04:04:02.930Z,12.05
2022-10-01T04:05:02.403Z,12.07
2022-10-01T04:06:02.898Z,12.04
2022-10-01T04:07:02.021Z,12.02
2022-10-01T04:08:02.348Z,12.01
2022-10-01T04:09:02.135Z,12.01
2022-10-01T04:10:02.471Z,11.98
2022-10-01T04:11:02.169Z,11.98
2022-10-01T04:12:02.637Z,11.98
2022-10-01T04:13:02.408Z,11.99
2022-10-01T04:14:02.908Z,12.00
2022-10-01T04:15:02.621Z,12.00
2022-10-01T04:16:03.373Z,12.02
2022-10-01T04:17:02.687Z,12.04
2022-10-01T04:18:02.757Z,12.06
2022-10-01T04:19:03.141Z,12.08
2022-10-01T04:20:02.523Z,12.07
2022-10-01T04:21:02.513Z,12.08
2022-10-01T04:22:02.013Z,12.05
2022-10-01T04:23:02.045Z,12.04
2022-10-01T04:24:01.891Z,11.96
2022-10-01T04:25:02.364Z,11.91
2022-10-01T04:26:01.831Z,11.91
2022-10-01T04:27:02.217Z,11.87
2022-10-01T04:28:02.684Z,11.86
2022-10-01T04:29:02.264Z,11.87
2022-10-01T04:30:02.046Z,11.88
2022-10-01T04:31:02.420Z,11.85
2022-10-01T04:32:03.015Z,11.83
2022-10-01T04:33:02.584Z,11.82
2022-10-01T04:34:03.041Z,11.81
2022-10-01T04:35:02.732Z,11.79
2022-10-01T04:36:03.118Z,11.78
2022-10-01T04:37:02.921Z,11.75
2022-10-01T04:38:02.621Z,11.75
2022-10-01T04:39:03.165Z,11.76
2022-10-01T04:40:02.948Z,11.75
2022-10-01T04:41:02.700Z,11.74
2022-10-01T04:42:01.854Z,11.74
2022-10-01T04:43:02.316Z,11.73
2022-10-01T04:44:01.952Z,11.73
2022-10-01T04:45:02.421Z,11.71
2022-10-01T04:46:02.501Z,11.70
2022-10-01T04:47:02.709Z,11.72
2022-10-01T04:48:02.411Z,11.70
2022-10-01T04:49:02.705Z,11.68
2022-10-01T04:50:02.485Z,11.67
2022-10-01T04:51:02.471Z,11.65
2022-10-01T04:52:02.963Z,11.61
2022-10-01T04:53:02.722Z,11.58
2022-10-01T04:54:03.167Z,11.58
2022-10-01T04:55:02.960Z,11.56
2022-10-01T04:56:02.724Z,11.54
2022-10-01T04:57:02.080Z,11.51
2022-10-01T04:58:02.397Z,11.50
2022-10-01T04:59:01.940Z,11.45
2022-10-01T05:00:02.434Z,11.43
2022-10-01T05:01:02.466Z,11.41
2022-10-01T05:02:02.724Z,11.40
2022-10-01T05:03:02.557Z,11.41
2022-10-01T05:04:02.347Z,11.41
2022-10-01T05:05:02.718Z,11.39
2022-10-01T05:06:02.392Z,11.37
2022-10-01T05:07:02.920Z,11.40
2022-10-01T05:08:02.718Z,11.40
2022-10-01T05:09:02.545Z,11.39
2022-10-01T05:10:02.883Z,11.36
2022-10-01T05:11:02.679Z,11.36
2022-10-01T05:12:02.196Z,11.38
2022-10-01T05:13:01.880Z,11.38
2022-10-01T05:14:02.270Z,11.36
2022-10-01T05:15:02.127Z,11.38
2022-10-01T05:16:02.088Z,11.38
2022-10-01T05:17:02.425Z,11.40
2022-10-01T05:18:02.171Z,11.42
2022-10-01T05:19:02.602Z,11.42
2022-10-01T05:20:02.358Z,11.45
2022-10-01T05:21:02.808Z,11.46
2022-10-01T05:22:03.036Z,11.51
2022-10-01T05:23:02.734Z,11.52
2022-10-01T05:24:03.222Z,11.52
2022-10-01T05:25:02.604Z,11.51
2022-10-01T05:26:02.944Z,11.52
2022-10-01T05:27:02.479Z,11.51
2022-10-01T05:28:02.247Z,11.51
2022-10-01T05:29:02.638Z,11.47
2022-10-01T05:30:02.231Z,11.48
2022-10-01T05:31:02.163Z,11.49
2022-10-01T05:32:02.802Z,11.50
2022-10-01T05:33:02.550Z,11.52
2022-10-01T05:34:02.234Z,11.50
2022-10-01T05:35:02.622Z,11.53
2022-10-01T05:36:02.329Z,11.56
2022-10-01T05:37:02.424Z,11.57
2022-10-01T05:38:02.284Z,11.61
2022-10-01T05:39:02.112Z,11.62
2022-10-01T05:40:02.554Z,11.64
2022-10-01T05:41:02.432Z,11.64
2022-10-01T05:42:06.398Z,11.69
2022-10-01T05:43:02.561Z,11.72
2022-10-01T05:44:02.409Z,11.76
2022-10-01T05:45:02.867Z,11.76
2022-10-01T05:46:02.493Z,11.72
2022-10-01T05:47:03.014Z,11.74
2022-10-01T05:48:02.789Z,11.69
2022-10-01T05:49:02.730Z,11.68
2022-10-01T05:50:02.976Z,11.68
2022-10-01T05:51:02.794Z,11.69
2022-10-01T05:52:03.181Z,11.70
2022-10-01T05:53:03.017Z,11.71
2022-10-01T05:54:02.900Z,11.73
2022-10-01T05:55:02.772Z,11.78
2022-10-01T05:56:03.292Z,11.82
2022-10-01T05:57:02.624Z,11.85
2022-10-01T05:58:02.236Z,11.89
2022-10-01T05:59:02.011Z,11.92
2022-10-01T06:00:02.559Z,11.94
2022-10-01T06:01:02.199Z,11.96
2022-10-01T06:02:03.483Z,11.97
2022-10-01T06:03:03.393Z,12.01
2022-10-01T06:04:03.384Z,12.04
2022-10-01T06:05:03.522Z,12.07
2022-10-01T06:06:03.363Z,12.07
2022-10-01T06:07:03.773Z,12.10
2022-10-01T06:08:03.541Z,12.11
2022-10-01T06:09:03.358Z,12.12
2022-10-01T06:10:03.239Z,12.12
2022-10-01T06:11:03.797Z,12.13
2022-10-01T06:12:03.290Z,12.14
2022-10-01T06:13:02.764Z,12.17
2022-10-01T06:14:03.304Z,12.16
2022-10-01T06:15:02.918Z,12.15
2022-10-01T06:16:02.849Z,12.14
2022-10-01T06:17:03.397Z,12.13
2022-10-01T06:18:03.025Z,12.11
2022-10-01T06:19:02.884Z,12.12
2022-10-01T06:20:03.374Z,12.15
2022-10-01T06:21:02.984Z,12.18
2022-10-01T06:22:03.401Z,12.18
2022-10-01T06:23:02.954Z,12.19
2022-10-01T06:24:03.461Z,12.19
2022-10-01T06:25:03.094Z,12.19
2022-10-01T06:26:02.919Z,12.20
2022-10-01T06:27:02.508Z,12.22
2022-10-01T06:28:03.062Z,12.23
2022-10-01T06:29:02.736Z,12.26
2022-10-01T06:30:02.541Z,12.26
2022-10-01T06:31:03.125Z,12.31
2022-10-01T06:32:02.786Z,12.31
2022-10-01T06:33:03.293Z,12.30
2022-10-01T06:34:03.215Z,12.30
2022-10-01T06:35:03.126Z,12.27
2022-10-01T06:36:03.028Z,12.28
2022-10-01T06:37:02.928Z,12.30
2022-10-01T06:38:03.510Z,12.32
2022-10-01T06:39:03.146Z,12.33
2022-10-01T06:40:03.053Z,12.27
2022-10-01T06:41:02.926Z,12.28
2022-10-01T06:42:02.450Z,12.30
2022-10-01T06:43:03.024Z,12.29
2022-10-01T06:44:02.670Z,12.27
2022-10-01T06:45:02.563Z,12.26
2022-10-01T06:46:03.137Z,12.26
2022-10-01T06:47:02.773Z,12.25
2022-10-01T06:48:03.328Z,12.25
2022-10-01T06:49:02.837Z,12.25
2022-10-01T06:50:03.328Z,12.26
2022-10-01T06:51:02.780Z,12.29
2022-10-01T06:52:03.305Z,12.33
2022-10-01T06:53:03.636Z,12.36
2022-10-01T06:54:03.478Z,12.36
2022-10-01T06:55:03.275Z,12.36
2022-10-01T06:56:03.850Z,12.38
2022-10-01T06:57:02.728Z,12.37
2022-10-01T06:58:02.629Z,12.38
2022-10-01T06:59:03.135Z,12.40
2022-10-01T07:00:02.925Z,12.42
2022-10-01T07:01:02.875Z,12.45
2022-10-01T07:02:02.770Z,12.50
2022-10-01T07:03:03.297Z,12.50
2022-10-01T07:04:02.931Z,12.50
2022-10-01T07:05:02.909Z,12.50
2022-10-01T07:06:02.913Z,12.51
2022-10-01T07:07:03.317Z,12.51
2022-10-01T07:08:02.793Z,12.53
2022-10-01T07:09:03.262Z,12.56
2022-10-01T07:10:02.816Z,12.59
2022-10-01T07:11:03.272Z,12.61
2022-10-01T07:12:01.887Z,12.62
2022-10-01T07:13:01.765Z,12.65
2022-10-01T07:14:02.332Z,12.65
2022-10-01T07:15:01.934Z,12.64
2022-10-01T07:16:01.860Z,12.65
2022-10-01T07:17:02.430Z,12.68
2022-10-01T07:18:02.325Z,12.69
2022-10-01T07:19:02.889Z,12.71
2022-10-01T07:20:02.464Z,12.72
2022-10-01T07:21:02.338Z,12.75
2022-10-01T07:22:02.830Z,12.78
2022-10-01T07:23:03.321Z,12.81
2022-10-01T07:24:02.952Z,12.84
2022-10-01T07:25:02.974Z,12.87
2022-10-01T07:26:02.805Z,12.90
2022-10-01T07:27:07.076Z,12.92
2022-10-01T07:28:02.441Z,12.92
2022-10-01T07:29:02.323Z,12.93
2022-10-01T07:30:02.760Z,12.94
2022-10-01T07:31:02.666Z,12.94
2022-10-01T07:32:02.568Z,12.95
2022-10-01T07:33:02.479Z,12.95
2022-10-01T07:34:02.890Z,12.96
2022-10-01T07:35:02.576Z,12.98
2022-10-01T07:36:02.317Z,13.00
2022-10-01T07:37:03.009Z,13.01
2022-10-01T07:38:02.922Z,13.03
2022-10-01T07:39:02.819Z,13.07
2022-10-01T07:40:07.140Z,13.06
2022-10-01T07:41:02.673Z,13.09
2022-10-01T07:42:02.263Z,13.08
2022-10-01T07:43:02.247Z,13.07
2022-10-01T07:44:02.112Z,13.08
2022-10-01T07:45:01.970Z,13.09
2022-10-01T07:46:02.630Z,13.12
2022-10-01T07:47:02.333Z,13.15
2022-10-01T07:48:02.585Z,13.20
2022-10-01T07:49:02.136Z,13.24
2022-10-01T07:50:02.671Z,13.29
2022-10-01T07:51:02.687Z,13.34
2022-10-01T07:52:02.925Z,13.36
2022-10-01T07:53:03.023Z,13.36
2022-10-01T07:54:02.950Z,13.36
2022-10-01T07:55:02.773Z,13.37
2022-10-01T07:56:03.186Z,13.37
2022-10-01T07:57:02.151Z,13.37
2022-10-01T07:58:02.029Z,13.38
2022-10-01T07:59:02.463Z,13.41
2022-10-01T08:00:02.147Z,13.43
2022-10-01T08:01:02.131Z,13.44
2022-10-01T08:02:02.769Z,13.44
2022-10-01T08:03:02.646Z,13.45
2022-10-01T08:04:02.568Z,13.46
2022-10-01T08:05:02.423Z,13.48
2022-10-01T08:06:02.948Z,13.50
2022-10-01T08:07:02.886Z,13.52
2022-10-01T08:08:02.599Z,13.54
2022-10-01T08:09:03.105Z,13.59
2022-10-01T08:10:02.664Z,13.60
2022-10-01T08:11:03.058Z,13.62
2022-10-01T08:12:03.170Z,13.65
2022-10-01T08:13:02.997Z,13.64
2022-10-01T08:14:02.859Z,13.64
2022-10-01T08:15:03.265Z,13.67
2022-10-01T08:16:03.047Z,13.69
2022-10-01T08:17:02.748Z,13.68
2022-10-01T08:18:02.510Z,13.68
2022-10-01T08:19:02.323Z,13.68
2022-10-01T08:20:02.839Z,13.68
2022-10-01T08:21:02.449Z,13.67
2022-10-01T08:22:03.050Z,13.69
2022-10-01T08:23:02.976Z,13.69
2022-10-01T08:24:02.908Z,13.73
2022-10-01T08:25:02.827Z,13.71
2022-10-01T08:26:03.273Z,13.73
2022-10-01T08:27:02.697Z,13.75
2022-10-01T08:28:02.681Z,13.79
2022-10-01T08:29:02.666Z,13.81
2022-10-01T08:30:02.506Z,13.84
2022-10-01T08:31:02.334Z,13.87
2022-10-01T08:32:02.970Z,13.84
2022-10-01T08:33:02.745Z,13.85
2022-10-01T08:34:02.951Z,13.83
2022-10-01T08:35:02.771Z,13.86
2022-10-01T08:36:02.615Z,13.88
2022-10-01T08:37:03.153Z,13.90
2022-10-01T08:38:03.098Z,13.89
2022-10-01T08:39:02.901Z,13.91
2022-10-01T08:40:02.805Z,13.92
2022-10-01T08:41:02.734Z,13.96
2022-10-01T08:42:03.359Z,13.99
2022-10-01T08:43:02.996Z,13.97
2022-10-01T08:44:02.951Z,13.99
2022-10-01T08:45:03.505Z,14.01
2022-10-01T08:46:03.074Z,14.02
2022-10-01T08:47:02.732Z,14.04
2022-10-01T08:48:02.502Z,14.06
2022-10-01T08:49:02.401Z,14.06
2022-10-01T08:50:02.296Z,14.06
2022-10-01T08:51:02.743Z,14.09
2022-10-01T08:52:03.346Z,14.11
2022-10-01T08:53:03.178Z,14.16
2022-10-01T08:54:03.100Z,14.20
2022-10-01T08:55:02.953Z,14.23
2022-10-01T08:56:02.798Z,14.24
2022-10-01T08:57:03.471Z,14.27
2022-10-01T08:58:03.405Z,14.30
2022-10-01T08:59:03.268Z,14.29
2022-10-01T09:00:03.055Z,14.30
2022-10-01T09:01:03.094Z,14.31
2022-10-01T09:02:02.761Z,14.30
2022-10-01T09:03:02.652Z,14.29
2022-10-01T09:04:02.484Z,14.27
2022-10-01T09:05:02.584Z,14.27
2022-10-01T09:06:02.335Z,14.25
2022-10-01T09:07:02.862Z,14.27
2022-10-01T09:08:02.630Z,14.29
2022-10-01T09:09:02.522Z,14.32
2022-10-01T09:10:02.947Z,14.33
2022-10-01T09:11:02.575Z,14.36
2022-10-01T09:12:03.125Z,14.37
2022-10-01T09:13:03.010Z,14.39
2022-10-01T09:14:02.749Z,14.44
2022-10-01T09:15:02.603Z,14.45
2022-10-01T09:16:03.109Z,14.44
2022-10-01T09:17:02.635Z,14.39
2022-10-01T09:18:02.214Z,14.37
2022-10-01T09:19:02.094Z,14.37
2022-10-01T09:20:02.549Z,14.36
2022-10-01T09:21:02.374Z,14.37
2022-10-01T09:22:02.936Z,14.39
2022-10-01T09:23:02.334Z,14.40
2022-10-01T09:24:02.833Z,14.42
2022-10-01T09:25:02.741Z,14.44
2022-10-01T09:26:02.668Z,14.45
2022-10-01T09:27:03.202Z,14.48
2022-10-01T09:28:02.931Z,14.49
2022-10-01T09:29:02.877Z,14.51
2022-10-01T09:30:02.792Z,14.50
2022-10-01T09:31:02.665Z,14.51
2022-10-01T09:32:02.930Z,14.53
2022-10-01T09:33:02.520Z,14.54
2022-10-01T09:34:02.325Z,14.54
2022-10-01T09:35:04.627Z,14.54
2022-10-01T09:36:02.676Z,14.55
2022-10-01T09:37:02.524Z,14.57
2022-10-01T09:38:03.027Z,14.61
2022-10-01T09:39:02.953Z,14.59
2022-10-01T09:40:02.709Z,14.61
2022-10-01T09:41:02.650Z,14.63
2022-10-01T09:42:02.156Z,14.66
2022-10-01T09:43:02.677Z,14.65
2022-10-01T09:44:02.167Z,14.67
2022-10-01T09:45:02.710Z,14.68
2022-10-01T09:46:02.404Z,14.65
2022-10-01T09:47:02.317Z,14.64
2022-10-01T09:48:02.781Z,14.64
2022-10-01T09:49:02.563Z,14.64
2022-10-01T09:50:02.353Z,14.63
2022-10-01T09:51:02.910Z,14.64
2022-10-01T09:52:02.434Z,14.67
2022-10-01T09:53:02.964Z,14.70
2022-10-01T09:54:02.936Z,14.72
2022-10-01T09:55:03.061Z,14.73
2022-10-01T09:56:02.750Z,14.74
2022-10-01T09:57:02.679Z,14.78
2022-10-01T09:58:03.234Z,14.81
2022-10-01T09:59:02.787Z,14.84
2022-10-01T10:00:03.257Z,14.87
2022-10-01T10:01:02.898Z,14.88
2022-10-01T10:02:02.864Z,14.92
2022-10-01T10:03:03.002Z,14.95
2022-10-01T10:04:02.944Z,14.96
2022-10-01T10:05:02.913Z,14.98
2022-10-01T10:06:02.841Z,15.00
2022-10-01T10:07:02.958Z,15.02
2022-10-01T10:08:02.957Z,15.01
2022-10-01T10:09:03.511Z,15.07
2022-10-01T10:10:03.154Z,15.10
2022-10-01T10:11:03.087Z,15.13
2022-10-01T10:12:03.044Z,15.16
2022-10-01T10:13:03.021Z,15.22
2022-10-01T10:14:03.536Z,15.28
2022-10-01T10:15:03.280Z,15.34
2022-10-01T10:16:03.169Z,15.42
2022-10-01T10:17:03.077Z,15.47
2022-10-01T10:18:03.049Z,15.56
2022-10-01T10:19:03.554Z,15.63
2022-10-01T10:20:03.487Z,15.70
2022-10-01T10:21:03.561Z,15.79
2022-10-01T10:22:02.652Z,15.88
2022-10-01T10:23:03.143Z,15.95
2022-10-01T10:24:03.180Z,16.04
2022-10-01T10:25:02.750Z,16.10
2022-10-01T10:26:02.662Z,16.19
2022-10-01T10:27:02.222Z,16.28
2022-10-01T10:28:02.334Z,16.38
2022-10-01T10:29:02.591Z,16.47
2022-10-01T10:30:02.497Z,16.56
2022-10-01T10:31:02.723Z,16.64
2022-10-01T10:32:02.438Z,16.74
2022-10-01T10:33:02.514Z,16.80
2022-10-01T10:34:02.932Z,16.85
2022-10-01T10:35:03.294Z,16.88
2022-10-01T10:36:02.312Z,16.88
2022-10-01T10:37:02.916Z,16.90
2022-10-01T10:38:02.758Z,16.95
2022-10-01T10:39:03.386Z,16.96
2022-10-01T10:40:02.793Z,16.97
2022-10-01T10:41:02.822Z,16.99
2022-10-01T10:42:02.635Z,17.01
2022-10-01T10:43:02.566Z,17.04
2022-10-01T10:44:03.028Z,17.07
2022-10-01T10:45:02.661Z,17.10
2022-10-01T10:46:02.658Z,17.12
2022-10-01T10:47:03.244Z,17.13
2022-10-01T10:48:03.225Z,17.16
2022-10-01T10:49:03.077Z,17.17
2022-10-01T10:50:03.057Z,17.20
2022-10-01T10:51:03.038Z,17.21
2022-10-01T10:52:02.684Z,17.25
2022-10-01T10:53:02.919Z,17.27
2022-10-01T10:54:02.755Z,17.29
2022-10-01T10:55:02.989Z,17.30
2022-10-01T10:56:02.970Z,17.32
2022-10-01T10:57:02.830Z,17.33
2022-10-01T10:58:05.142Z,17.34
2022-10-01T10:59:03.076Z,17.36
2022-10-01T11:00:03.060Z,17.38
2022-10-01T11:01:03.196Z,17.39
2022-10-01T11:02:03.034Z,17.41
2022-10-01T11:03:03.172Z,17.46
2022-10-01T11:04:03.119Z,17.49
2022-10-01T11:05:03.153Z,17.49
2022-10-01T11:06:03.089Z,17.45
2022-10-01T11:07:02.942Z,17.47
2022-10-01T11:08:02.782Z,17.46
2022-10-01T11:09:02.802Z,17.43
2022-10-01T11:10:02.674Z,17.40
2022-10-01T11:11:03.216Z,17.35
2022-10-01T11:12:02.235Z,17.25
2022-10-01T11:13:02.100Z,17.15
2022-10-01T11:14:02.205Z,17.11
2022-10-01T11:15:02.390Z,17.01
2022-10-01T11:16:02.142Z,16.96
2022-10-01T11:17:02.291Z,16.90
2022-10-01T11:18:02.173Z,16.88
2022-10-01T11:19:02.149Z,16.85
2022-10-01T11:20:02.031Z,16.89
2022-10-01T11:21:02.063Z,16.93
2022-10-01T11:22:02.742Z,17.00
2022-10-01T11:23:02.742Z,17.06
2022-10-01T11:24:02.774Z,17.12
2022-10-01T11:25:02.986Z,17.21
2022-10-01T11:26:02.607Z,17.27
2022-10-01T11:27:02.946Z,17.34
2022-10-01T11:28:03.115Z,17.37
2022-10-01T11:29:02.980Z,17.42
2022-10-01T11:30:02.667Z,17.48
2022-10-01T11:31:02.776Z,17.48
2022-10-01T11:32:02.679Z,17.50
2022-10-01T11:33:02.900Z,17.50
2022-10-01T11:34:02.877Z,17.55
2022-10-01T11:35:02.787Z,17.60
2022-10-01T11:36:03.009Z,17.64
2022-10-01T11:37:02.552Z,17.70
2022-10-01T11:38:02.448Z,17.68
2022-10-01T11:39:02.331Z,17.73
2022-10-01T11:40:02.365Z,17.77
2022-10-01T11:41:02.105Z,17.82
2022-10-01T11:42:02.652Z,17.83
2022-10-01T11:43:02.525Z,17.87
2022-10-01T11:44:02.290Z,17.92
2022-10-01T11:45:02.324Z,17.94
2022-10-01T11:46:02.367Z,17.92
2022-10-01T11:47:02.924Z,17.90
2022-10-01T11:48:03.132Z,17.90
2022-10-01T11:49:02.787Z,17.92
2022-10-01T11:50:02.945Z,17.94
2022-10-01T11:51:02.900Z,17.96
2022-10-01T11:52:02.639Z,17.99
2022-10-01T11:53:02.267Z,17.99
2022-10-01T11:54:02.644Z,18.01
2022-10-01T11:55:02.276Z,17.99
2022-10-01T11:56:02.765Z,17.97
2022-10-01T11:57:03.180Z,17.98
2022-10-01T11:58:03.197Z,17.99
2022-10-01T11:59:03.175Z,18.03
2022-10-01T12:00:03.164Z,18.04
2022-10-01T12:01:03.169Z,18.06
2022-10-01T12:02:02.921Z,18.07
2022-10-01T12:03:02.564Z,18.05
2022-10-01T12:04:02.588Z,18.01
2022-10-01T12:05:02.593Z,18.00
2022-10-01T12:06:02.621Z,18.00
2022-10-01T12:07:03.301Z,18.03
2022-10-01T12:08:03.089Z,18.05
2022-10-01T12:09:02.863Z,18.03
2022-10-01T12:10:02.875Z,18.05
2022-10-01T12:11:03.330Z,18.06
2022-10-01T12:12:02.743Z,18.05
2022-10-01T12:13:02.338Z,18.05
2022-10-01T12:14:02.114Z,18.07
2022-10-01T12:15:06.443Z,18.06
2022-10-01T12:16:02.248Z,18.10
2022-10-01T12:17:03.323Z,18.14
2022-10-01T12:18:03.376Z,18.14
2022-10-01T12:19:03.108Z,18.17
2022-10-01T12:20:03.166Z,18.17
2022-10-01T12:21:02.785Z,18.19
2022-10-01T12:22:02.033Z,18.20
2022-10-01T12:23:02.370Z,18.23
2022-10-01T12:24:02.068Z,18.24
2022-10-01T12:25:02.224Z,18.25
2022-10-01T12:26:02.294Z,18.25
2022-10-01T12:27:02.077Z,18.26
2022-10-01T12:28:02.261Z,18.26
2022-10-01T12:29:02.429Z,18.27
2022-10-01T12:30:02.484Z,18.27
2022-10-01T12:31:02.749Z,18.25
2022-10-01T12:32:02.237Z,18.22
2022-10-01T12:33:02.310Z,18.20
2022-10-01T12:34:02.891Z,18.15
2022-10-01T12:35:02.498Z,18.09
2022-10-01T12:36:02.337Z,18.05
2022-10-01T12:37:02.867Z,18.02
2022-10-01T12:38:03.008Z,17.97
2022-10-01T12:39:03.090Z,17.93
2022-10-01T12:40:03.136Z,17.81
2022-10-01T12:41:03.007Z,17.71
2022-10-01T12:42:02.940Z,17.68
2022-10-01T12:43:04.480Z,17.61
2022-10-01T12:44:03.630Z,17.54
2022-10-01T12:45:03.054Z,17.50
2022-10-01T12:46:03.258Z,17.52
2022-10-01T12:47:03.142Z,17.52
2022-10-01T12:48:02.453Z,17.54
2022-10-01T12:49:02.665Z,17.58
2022-10-01T12:50:02.408Z,17.61
2022-10-01T12:51:02.439Z,17.63
2022-10-01T12:52:02.676Z,17.66